Aviation Digital Data Service (ADDS)

Output produced by METARs form (1714 UTC 24 June 2019)
found at http://www.aviationweather.gov/metar/data/
 
Forecast for: GCLP (LAS PALMAS/GANDO, ES)
Text: TAF GCLP 241400Z 2415/2515 15010KT 9999 SCT025 TX26/2514Z TN20/2506Z
Forecast period: 1500 to 2000 UTC 24 June 2019
Forecast type: FROM: standard forecast or significant change
Winds: from the SSE (150 degrees) at 12 MPH (10 knots; 5.1 m/s)
Visibility: 6 or more miles 10+ km)
Ceiling: at least 12,000 feet AGL
Clouds: scattered clouds at 2500 feet AGL
Weather: no significant weather forecast for this period
Text: BECMG 2420/2422 02003KT
Forecast period: 2000 UTC 24 June 2019 to 0900 UTC 25 June 2019
Forecast type: BECOMING: Conditions expected to become as follows by 2200 UTC 24 June 2019
Winds: from the NNE (20 degrees) at 3 MPH (3 knots; 1.5 m/s)
Visibility: 6 or more miles 10+ km)
Ceiling: at least 12,000 feet AGL
Clouds: scattered clouds at 2500 feet AGL
Weather: no significant weather forecast for this period
Text: BECMG 2509/2511 09010KT
Forecast period: 0900 to 1500 UTC 25 June 2019
Forecast type: BECOMING: Conditions expected to become as follows by 1100 UTC 25 June 2019
Winds: from the E (90 degrees) at 12 MPH (10 knots; 5.1 m/s)
Visibility: 6 or more miles 10+ km)
Ceiling: at least 12,000 feet AGL
Clouds: scattered clouds at 2500 feet AGL
Weather: no significant weather forecast for this period